Terminal Aerodrome Forecast
Issued by NWS

Home | Current Version | Previous Version | Text Only | Print | Product List | Glossary On
Versions: 1 2 3 4 5 6 7 8 9 10 11 12 13 14 15 16 17 18
000
FTUS43 KAPX 281126
TAFMBL
TAF
KMBL 281126Z 2812/2912 01005KT P6SM OVC010
     FM281500 03007KT P6SM SCT015
     FM281800 36008KT P6SM FEW200
     FM290500 05006KT P6SM FEW130=

USA.gov is the U.S. government's official web portal to all federal, state and local government web resources and services.